Airfield :
LOGIN :

Register | Disclaimer

   EN    FR    IT 

 










Legend :    VFR   Marginal VFR   IFR   Intensive IFR   Very Intensive IFR
Visi :
Ceiling :
>= 8 km
>= 3000ft
5 to 8 km
1000 to 3000 ft
1500m to 5 km
500 to 1000 ft
800 to 1500m
200 to 500 ft
< 800m
< 200 ft
Symbols :   Thunderstorms  Fog  Heavy snow  Heavy precipitations  Wind > 20 kt
SIGMETs :     Misc.  Thunderstorms  Icing  Turbulence  Mountain Waves  Volcanic Ashes







- Airport Elevation : 124 ft
- IATA code : RNS
- Download approach charts


LFRN - Rennes

CURRENT METAR :
  • 181730Z AUTO 26011KT 9999 FEW043 SCT049 BKN058 10/05 Q1011 NOSIG

EXPIRED METARs :
  • 181700Z AUTO 27010KT 9999 FEW047 10/06 Q1011 NOSIG
  • 181630Z AUTO 27011KT 9999 FEW031 BKN047 BKN056 11/07 Q1011 NOSIG
  • 181600Z AUTO 27008KT 9999 BKN035 OVC046 11/08 Q1010 NOSIG
  • 181530Z AUTO 27012KT 9999 FEW048 12/08 Q1010 NOSIG
  • 181500Z AUTO 28015KT 9999 BKN033 BKN041 OVC049 12/09 Q1010 NOSIG

TAF TAF LFRN
Valid from the 18 at 18:00 until the 19 at 18:00 UTC


181700Z 1818/1918 26012KT 9999 BKN020
PROB30
TEMPO 1820/1906 5000 SHRA
PROB30
TEMPO 1906/1910 4000 SHRA SCT015CB SCT020TCU
ATIS : +33 2 99 67 72 50
No reported NOTAMs for that airfield.



MET'MAP, your aeronautical weather chart ! - Copyright ORBIFLY December 2007 - Disclaimer

ORBIFLY MET'MAP TEAM :

Programming & Development : Alexandra Zaïnal
Concept & Development : Baudouin d'Aumeries
Co-Development & Prog : Marc-Olivier Méhu
Technical & hardware support : Manuel Goepfert

Contact : metmap@orbifly.com




SOURCES & CREDITS :

   NOAA